createdAt,value
2022-10-01T00:02:23.906Z,19.50
2022-10-01T00:04:52.553Z,20.37
2022-10-01T00:07:23.115Z,20.30
2022-10-01T00:09:52.903Z,17.07
2022-10-01T00:12:20.956Z,26.00
2022-10-01T00:14:49.351Z,21.80
2022-10-01T00:17:16.744Z,22.63
2022-10-01T00:19:47.007Z,24.73
2022-10-01T00:22:17.372Z,26.37
2022-10-01T00:24:46.867Z,26.87
2022-10-01T00:27:24.229Z,24.93
2022-10-01T00:30:01.372Z,22.63
2022-10-01T00:32:34.022Z,26.17
2022-10-01T00:35:03.751Z,26.47
2022-10-01T00:37:37.964Z,24.30
2022-10-01T00:40:16.042Z,23.07
2022-10-01T00:42:44.772Z,28.77
2022-10-01T00:45:18.963Z,32.30
2022-10-01T00:47:55.457Z,32.80
2022-10-01T00:50:52.471Z,34.33
2022-10-01T00:53:56.067Z,34.17
2022-10-01T00:56:25.996Z,32.83
2022-10-01T00:58:59.637Z,28.43
2022-10-01T01:01:29.981Z,30.97
2022-10-01T01:03:58.863Z,34.63
2022-10-01T01:06:27.077Z,29.23
2022-10-01T01:09:04.517Z,55.90
2022-10-01T01:12:03.787Z,27.00
2022-10-01T01:14:49.299Z,43.13
2022-10-01T01:17:38.422Z,45.00
2022-10-01T01:20:28.276Z,34.60
2022-10-01T01:23:57.921Z,35.03
2022-10-01T01:26:56.652Z,44.17
2022-10-01T01:29:49.137Z,60.87
2022-10-01T01:32:27.774Z,31.07
2022-10-01T01:34:59.633Z,68.93
2022-10-01T01:37:32.014Z,87.00
2022-10-01T01:40:01.291Z,29.50
2022-10-01T01:42:37.537Z,42.93
2022-10-01T01:45:10.157Z,29.97
2022-10-01T01:47:40.048Z,30.43
2022-10-01T01:50:08.458Z,76.90
2022-10-01T01:52:35.823Z,58.27
2022-10-01T01:55:07.550Z,47.77
2022-10-01T01:57:41.451Z,28.17
2022-10-01T02:00:09.450Z,41.03
2022-10-01T02:02:39.538Z,45.23
2022-10-01T02:05:14.211Z,44.87
2022-10-01T02:08:00.126Z,34.67
2022-10-01T02:10:46.313Z,41.70
2022-10-01T02:13:25.747Z,33.97
2022-10-01T02:16:19.241Z,23.27
2022-10-01T02:19:27.608Z,22.50
2022-10-01T02:22:13.337Z,22.23
2022-10-01T02:25:07.839Z,18.83
2022-10-01T02:27:46.613Z,16.10
2022-10-01T02:30:15.407Z,16.90
2022-10-01T02:32:46.649Z,18.27
2022-10-01T02:35:17.421Z,20.63
2022-10-01T02:37:47.410Z,16.07
2022-10-01T02:43:32.761Z,15.90
2022-10-01T02:46:11.784Z,17.53
2022-10-01T02:48:38.821Z,16.13
2022-10-01T02:51:31.719Z,19.03
2022-10-01T02:54:19.421Z,17.80
2022-10-01T02:57:06.042Z,18.73
2022-10-01T02:59:32.987Z,16.73
2022-10-01T03:02:00.173Z,17.23
2022-10-01T03:04:27.444Z,15.80
2022-10-01T03:06:54.533Z,16.60
2022-10-01T03:09:21.598Z,16.17
2022-10-01T03:11:48.684Z,15.20
2022-10-01T03:14:15.702Z,13.67
2022-10-01T03:16:42.770Z,14.60
2022-10-01T03:19:09.877Z,13.47
2022-10-01T03:21:37.015Z,13.27
2022-10-01T03:24:04.276Z,14.93
2022-10-01T03:26:31.289Z,14.47
2022-10-01T03:28:58.336Z,11.63
2022-10-01T03:31:25.412Z,13.30
2022-10-01T03:33:52.732Z,12.87
2022-10-01T03:36:19.811Z,14.40
2022-10-01T03:38:46.876Z,12.60
2022-10-01T03:41:13.889Z,12.93
2022-10-01T03:43:40.872Z,13.13
2022-10-01T03:46:08.017Z,13.13
2022-10-01T03:48:35.128Z,12.37
2022-10-01T03:51:02.129Z,12.17
2022-10-01T03:53:29.289Z,13.43
2022-10-01T03:55:56.529Z,12.53
2022-10-01T03:58:23.809Z,11.80
2022-10-01T04:00:51.617Z,11.87
2022-10-01T04:03:19.114Z,10.57
2022-10-01T04:05:46.726Z,12.97
2022-10-01T04:08:14.779Z,14.50
2022-10-01T04:10:42.169Z,12.67
2022-10-01T04:13:09.529Z,13.03
2022-10-01T04:15:36.689Z,12.37
2022-10-01T04:18:06.171Z,13.03
2022-10-01T04:20:35.243Z,12.37
2022-10-01T04:23:02.696Z,15.37
2022-10-01T04:25:30.236Z,13.67
2022-10-01T04:28:02.558Z,15.53
2022-10-01T04:30:32.451Z,15.53
2022-10-01T04:32:59.620Z,14.53
2022-10-01T04:35:27.609Z,18.27
2022-10-01T04:38:04.754Z,14.70
2022-10-01T04:40:34.649Z,13.10
2022-10-01T04:43:05.812Z,26.40
2022-10-01T04:45:32.868Z,13.80
2022-10-01T04:47:59.975Z,20.47
2022-10-01T04:50:27.809Z,23.87
2022-10-01T04:52:55.206Z,30.03
2022-10-01T04:55:22.801Z,67.40
2022-10-01T04:57:50.279Z,24.47
2022-10-01T05:00:24.488Z,16.23
2022-10-01T05:02:52.436Z,27.63
2022-10-01T05:05:21.813Z,52.93
2022-10-01T05:07:49.266Z,34.60
2022-10-01T05:10:19.812Z,40.97
2022-10-01T05:12:47.387Z,18.40
2022-10-01T05:15:15.581Z,21.83
2022-10-01T05:17:43.232Z,18.30
2022-10-01T05:20:20.091Z,29.40
2022-10-01T05:22:48.944Z,18.97
2022-10-01T05:25:17.226Z,18.23
2022-10-01T05:27:44.371Z,16.57
2022-10-01T05:30:13.571Z,19.37
2022-10-01T05:32:40.773Z,18.37
2022-10-01T05:35:09.027Z,17.00
2022-10-01T05:37:36.356Z,46.43
2022-10-01T05:40:04.072Z,28.37
2022-10-01T05:42:31.130Z,24.67
2022-10-01T05:44:58.173Z,25.03
2022-10-01T05:47:25.231Z,19.60
2022-10-01T05:49:52.271Z,24.57
2022-10-01T05:52:19.332Z,23.03
2022-10-01T05:54:46.530Z,25.20
2022-10-01T05:57:13.996Z,30.30
2022-10-01T05:59:41.111Z,34.63
2022-10-01T06:02:10.366Z,14.80
2022-10-01T06:04:41.051Z,26.27
2022-10-01T06:07:08.946Z,23.47
2022-10-01T06:09:36.021Z,13.63
2022-10-01T06:12:09.911Z,14.07
2022-10-01T06:14:36.910Z,14.00
2022-10-01T06:17:03.891Z,23.70
2022-10-01T06:19:30.846Z,32.83
2022-10-01T06:21:57.867Z,79.70
2022-10-01T06:24:25.717Z,25.93
2022-10-01T06:26:52.714Z,79.60
2022-10-01T06:29:19.719Z,39.53
2022-10-01T06:31:46.754Z,24.07
2022-10-01T06:34:13.837Z,15.17
2022-10-01T06:36:41.022Z,18.00
2022-10-01T06:39:35.866Z,14.07
2022-10-01T06:42:02.831Z,12.53
2022-10-01T06:44:29.788Z,12.40
2022-10-01T06:46:56.832Z,16.07
2022-10-01T06:49:23.910Z,16.80
2022-10-01T06:52:09.192Z,12.63
2022-10-01T06:54:37.383Z,13.63
2022-10-01T06:57:07.476Z,19.37
2022-10-01T06:59:41.650Z,18.50
2022-10-01T07:02:26.642Z,14.23
2022-10-01T07:05:43.179Z,13.70
2022-10-01T07:08:12.892Z,15.87
2022-10-01T07:10:53.447Z,13.87
2022-10-01T07:13:23.211Z,12.97
2022-10-01T07:15:53.133Z,12.93
2022-10-01T07:18:21.936Z,12.00
2022-10-01T07:20:58.138Z,13.80
2022-10-01T07:23:34.094Z,11.00
2022-10-01T07:26:11.213Z,9.40
2022-10-01T07:28:39.821Z,11.03
2022-10-01T07:34:09.098Z,7.70
2022-10-01T07:36:38.914Z,6.80
2022-10-01T07:39:20.625Z,5.53
2022-10-01T07:41:47.769Z,7.57
2022-10-01T07:44:19.711Z,6.30
2022-10-01T07:46:56.822Z,7.57
2022-10-01T07:49:28.055Z,8.57
2022-10-01T07:51:59.008Z,9.27
2022-10-01T07:54:26.966Z,14.03
2022-10-01T07:56:56.218Z,15.10
2022-10-01T07:59:34.866Z,12.33
2022-10-01T08:02:04.453Z,10.90
2022-10-01T08:07:38.729Z,11.20
2022-10-01T08:10:16.083Z,10.93
2022-10-01T08:12:49.177Z,11.50
2022-10-01T08:15:22.098Z,8.90
2022-10-01T08:17:53.156Z,10.50
2022-10-01T08:20:24.254Z,9.40
2022-10-01T08:22:59.916Z,8.83
2022-10-01T08:25:31.837Z,10.27
2022-10-01T08:28:07.322Z,7.13
2022-10-01T08:30:47.417Z,7.43
2022-10-01T08:36:03.642Z,6.80
2022-10-01T08:38:31.741Z,9.03
2022-10-01T08:41:12.745Z,6.03
2022-10-01T08:43:42.011Z,5.63
2022-10-01T08:46:19.475Z,5.93
2022-10-01T08:49:26.673Z,5.03
2022-10-01T08:52:09.082Z,4.83
2022-10-01T08:54:56.601Z,4.63
2022-10-01T08:57:51.192Z,5.53
2022-10-01T09:00:20.713Z,4.77
2022-10-01T09:02:59.317Z,4.25
2022-10-01T09:06:05.610Z,4.82
2022-10-01T09:09:13.866Z,3.60
2022-10-01T09:12:31.682Z,3.85
2022-10-01T09:15:45.153Z,3.10
2022-10-01T09:18:31.097Z,4.10
2022-10-01T09:21:00.100Z,3.75
2022-10-01T09:23:41.131Z,3.78
2022-10-01T09:26:13.092Z,4.00
2022-10-01T09:28:42.191Z,3.63
2022-10-01T09:31:30.524Z,3.50
2022-10-01T09:34:21.907Z,3.22
2022-10-01T09:37:27.628Z,3.38
2022-10-01T09:40:27.732Z,3.53
2022-10-01T09:43:01.191Z,3.78
2022-10-01T09:45:32.158Z,3.75
2022-10-01T09:48:19.664Z,3.83
2022-10-01T09:51:01.618Z,3.80
2022-10-01T09:53:37.488Z,4.10
2022-10-01T09:56:32.251Z,4.40
2022-10-01T09:59:27.326Z,6.85
2022-10-01T10:01:59.540Z,7.00
2022-10-01T10:04:35.872Z,6.75
2022-10-01T10:07:06.308Z,4.80
2022-10-01T10:09:44.256Z,4.85
2022-10-01T10:12:35.608Z,5.30
2022-10-01T10:15:20.057Z,4.90
2022-10-01T10:17:51.712Z,5.03
2022-10-01T10:20:54.216Z,5.50
2022-10-01T10:23:31.853Z,5.05
2022-10-01T10:26:08.031Z,5.78
2022-10-01T10:28:46.807Z,4.47
2022-10-01T10:31:20.542Z,4.85
2022-10-01T10:33:57.537Z,5.20
2022-10-01T10:36:35.251Z,4.72
2022-10-01T10:39:08.723Z,4.25
2022-10-01T10:41:44.516Z,5.15
2022-10-01T10:44:28.379Z,4.10
2022-10-01T10:47:13.469Z,5.25
2022-10-01T10:50:19.336Z,5.57
2022-10-01T10:52:49.016Z,3.97
2022-10-01T10:55:32.332Z,3.85
2022-10-01T10:58:15.576Z,4.25
2022-10-01T11:00:52.986Z,5.05
2022-10-01T11:03:31.116Z,4.80
2022-10-01T11:06:15.442Z,4.40
2022-10-01T11:08:54.018Z,4.20
2022-10-01T11:12:08.473Z,3.92
2022-10-01T11:15:10.081Z,5.50
2022-10-01T11:18:16.422Z,4.75
2022-10-01T11:21:32.621Z,4.47
2022-10-01T11:28:12.167Z,5.07
2022-10-01T11:31:23.241Z,6.05
2022-10-01T11:34:30.263Z,5.93
2022-10-01T11:37:28.555Z,4.32
2022-10-01T11:40:04.319Z,4.85
2022-10-01T11:42:36.788Z,4.75
2022-10-01T11:45:35.261Z,5.32
2022-10-01T11:48:26.677Z,7.63
2022-10-01T11:51:00.237Z,3.65
2022-10-01T11:53:47.291Z,4.07
2022-10-01T11:56:53.478Z,3.65
2022-10-01T11:59:43.176Z,3.90
2022-10-01T12:03:04.246Z,3.70
2022-10-01T12:05:34.080Z,3.92
2022-10-01T12:08:23.042Z,3.70
2022-10-01T12:10:59.658Z,3.80
2022-10-01T12:13:35.894Z,3.90
2022-10-01T12:16:35.944Z,3.92
2022-10-01T12:19:14.178Z,3.35
2022-10-01T12:22:04.059Z,3.65
2022-10-01T12:24:45.087Z,3.20
2022-10-01T12:28:00.226Z,3.75
2022-10-01T12:30:49.897Z,3.17
2022-10-01T12:34:05.757Z,3.08
2022-10-01T12:37:19.324Z,3.72
2022-10-01T12:40:08.541Z,3.13
2022-10-01T12:43:11.554Z,3.50
2022-10-01T12:46:19.954Z,3.00
2022-10-01T12:49:07.206Z,3.22
2022-10-01T12:52:05.871Z,3.72
2022-10-01T12:55:05.800Z,4.32
2022-10-01T12:58:16.636Z,3.30
2022-10-01T13:01:29.493Z,3.88
2022-10-01T13:04:50.995Z,3.60
2022-10-01T13:07:32.877Z,3.85
2022-10-01T13:10:41.374Z,3.90
2022-10-01T13:13:33.056Z,3.80
2022-10-01T13:16:21.562Z,3.70
2022-10-01T13:19:15.976Z,3.63
2022-10-01T13:22:15.641Z,4.32
2022-10-01T13:25:28.522Z,3.95
2022-10-01T13:28:29.550Z,3.80
2022-10-01T13:31:13.644Z,3.28
2022-10-01T13:33:43.516Z,3.70
2022-10-01T13:36:13.761Z,3.80
2022-10-01T13:38:53.662Z,4.00
2022-10-01T13:41:38.291Z,4.68
2022-10-01T13:44:34.712Z,3.90
2022-10-01T13:47:12.214Z,3.72
2022-10-01T13:49:44.114Z,3.80
2022-10-01T13:52:23.696Z,3.80
2022-10-01T13:54:57.077Z,4.15
2022-10-01T13:57:35.391Z,3.70
2022-10-01T14:00:24.916Z,3.58
2022-10-01T14:03:22.501Z,3.40
2022-10-01T14:06:18.987Z,5.20
2022-10-01T14:09:19.591Z,3.58
2022-10-01T14:12:29.743Z,3.65
2022-10-01T14:15:32.326Z,3.72
2022-10-01T14:18:12.361Z,4.47
2022-10-01T14:21:20.687Z,5.35
2022-10-01T14:54:53.730Z,5.82
2022-10-01T14:57:47.421Z,6.38
2022-10-01T15:00:25.011Z,6.00
2022-10-01T15:03:24.672Z,6.40
2022-10-01T15:06:10.999Z,6.30
2022-10-01T15:08:52.210Z,5.97
2022-10-01T15:11:44.632Z,6.22
2022-10-01T15:14:22.804Z,5.82
2022-10-01T15:16:59.414Z,6.20
2022-10-01T15:19:27.797Z,6.55
2022-10-01T15:22:02.382Z,8.85
2022-10-01T15:24:49.783Z,10.15
2022-10-01T15:27:20.999Z,10.07
2022-10-01T15:29:59.162Z,7.93
2022-10-01T15:32:35.912Z,9.57
2022-10-01T15:35:07.912Z,7.95
2022-10-01T15:37:45.702Z,7.38
2022-10-01T15:40:36.822Z,8.93
2022-10-01T15:43:46.757Z,7.88
2022-10-01T15:46:25.437Z,8.80
2022-10-01T15:49:15.454Z,11.68
2022-10-01T15:52:08.082Z,11.68
2022-10-01T15:54:45.342Z,8.90
2022-10-01T15:57:24.930Z,8.95
2022-10-01T16:00:00.319Z,8.75
2022-10-01T16:02:34.407Z,8.90
2022-10-01T16:05:36.048Z,8.07
2022-10-01T16:08:05.406Z,8.83
2022-10-01T16:10:42.157Z,9.00
2022-10-01T16:13:42.776Z,9.73
2022-10-01T16:16:33.355Z,10.20
2022-10-01T16:19:31.973Z,13.97
2022-10-01T16:22:33.209Z,11.80
2022-10-01T16:25:36.003Z,13.40
2022-10-01T16:28:21.189Z,12.23
2022-10-01T16:30:54.491Z,14.33
2022-10-01T16:33:22.733Z,11.07
2022-10-01T16:36:13.538Z,10.80
2022-10-01T16:38:45.867Z,12.67
2022-10-01T16:41:28.222Z,18.20
2022-10-01T16:44:01.358Z,13.87
2022-10-01T16:46:32.189Z,12.03
2022-10-01T16:49:11.592Z,12.47
2022-10-01T16:51:54.798Z,11.40
2022-10-01T16:54:25.405Z,11.90
2022-10-01T16:56:56.387Z,12.67
2022-10-01T16:59:29.517Z,16.10
2022-10-01T17:01:58.385Z,14.67
2022-10-01T17:04:33.489Z,15.23
2022-10-01T17:07:22.469Z,15.73
2022-10-01T17:09:58.068Z,14.40
2022-10-01T17:12:28.900Z,14.97
2022-10-01T17:15:06.327Z,17.47
2022-10-01T17:17:35.847Z,17.27
2022-10-01T17:20:06.158Z,16.30
2022-10-01T17:22:34.973Z,16.83
2022-10-01T17:25:04.065Z,15.10
2022-10-01T17:27:35.210Z,14.67
2022-10-01T17:30:06.362Z,18.77
2022-10-01T17:32:37.859Z,17.07
2022-10-01T17:35:28.585Z,15.63
2022-10-01T17:38:04.657Z,17.63
2022-10-01T17:40:34.969Z,16.23
2022-10-01T17:43:11.280Z,36.30
2022-10-01T17:45:43.585Z,23.37
2022-10-01T17:48:12.487Z,28.17
2022-10-01T17:50:45.031Z,17.70
2022-10-01T17:53:15.300Z,16.27
2022-10-01T17:55:49.337Z,16.13
2022-10-01T17:58:18.201Z,21.43
2022-10-01T18:00:55.121Z,15.37
2022-10-01T18:03:24.001Z,8.30
2022-10-01T18:05:52.193Z,8.57
2022-10-01T18:08:44.632Z,8.20
2022-10-01T18:11:18.608Z,16.00
2022-10-01T18:13:55.873Z,11.77
2022-10-01T18:16:27.084Z,13.07
2022-10-01T18:22:00.659Z,12.57
2022-10-01T18:24:32.133Z,15.43
2022-10-01T18:27:02.498Z,15.17
2022-10-01T18:29:30.928Z,13.23
2022-10-01T18:32:21.907Z,12.03
2022-10-01T18:34:55.208Z,12.20
2022-10-01T18:37:54.725Z,12.20
2022-10-01T18:40:57.449Z,11.83
2022-10-01T18:43:34.878Z,10.00
2022-10-01T18:46:24.402Z,10.20
2022-10-01T18:49:30.967Z,6.50
2022-10-01T18:52:26.439Z,6.70
2022-10-01T18:55:09.588Z,7.60
2022-10-01T18:58:03.728Z,8.23
2022-10-01T19:01:10.423Z,7.03
2022-10-01T19:04:18.715Z,8.60
2022-10-01T19:07:09.958Z,9.57
2022-10-01T19:10:09.615Z,12.00
2022-10-01T19:12:51.698Z,9.77
2022-10-01T19:15:50.110Z,13.43
2022-10-01T19:18:59.763Z,13.67
2022-10-01T19:22:00.852Z,11.53
2022-10-01T19:25:09.281Z,11.00
2022-10-01T19:28:04.313Z,14.43
2022-10-01T19:30:45.001Z,12.80
2022-10-01T19:33:18.112Z,11.77
2022-10-01T19:35:54.162Z,13.00
2022-10-01T19:38:43.291Z,11.87
2022-10-01T19:42:03.629Z,16.47
2022-10-01T19:44:49.122Z,12.83
2022-10-01T19:47:39.009Z,14.50
2022-10-01T19:50:31.126Z,14.23
2022-10-01T19:53:09.763Z,12.53
2022-10-01T19:55:40.514Z,15.00
2022-10-01T19:58:18.868Z,13.80
2022-10-01T20:00:51.367Z,16.23
2022-10-01T20:03:47.168Z,15.93
2022-10-01T20:06:39.792Z,16.63
2022-10-01T20:09:46.371Z,14.23
2022-10-01T20:13:06.112Z,20.40
2022-10-01T20:16:06.870Z,18.23
2022-10-01T20:18:56.772Z,19.00
2022-10-01T20:22:01.708Z,16.70
2022-10-01T20:24:56.927Z,18.43
2022-10-01T20:28:19.325Z,18.20
2022-10-01T20:31:11.629Z,17.27
2022-10-01T20:33:57.851Z,16.10
2022-10-01T20:40:12.681Z,16.27
2022-10-01T20:42:48.677Z,13.70
2022-10-01T20:45:41.860Z,15.13
2022-10-01T20:48:33.733Z,14.67
2022-10-01T20:51:26.544Z,14.23
2022-10-01T20:53:59.677Z,13.87
2022-10-01T20:56:56.063Z,16.17
2022-10-01T20:59:53.307Z,15.23
2022-10-01T21:02:55.132Z,18.57
2022-10-01T21:06:03.480Z,18.83
2022-10-01T21:09:06.742Z,17.33
2022-10-01T21:11:48.332Z,23.23
2022-10-01T21:14:37.382Z,19.57
2022-10-01T21:17:45.189Z,18.83
2022-10-01T21:21:00.673Z,18.33
2022-10-01T21:24:14.749Z,21.53
2022-10-01T21:27:21.493Z,17.43
2022-10-01T21:30:36.233Z,17.37
2022-10-01T21:33:46.408Z,19.53
2022-10-01T21:36:39.238Z,22.43
2022-10-01T21:39:40.979Z,25.67
2022-10-01T21:42:28.678Z,22.00
2022-10-01T21:45:31.491Z,25.00
2022-10-01T21:48:31.122Z,22.83
2022-10-01T21:51:10.140Z,22.87
2022-10-01T21:54:34.635Z,25.43
2022-10-01T21:57:32.922Z,20.87
2022-10-01T22:00:26.793Z,26.77
2022-10-01T22:03:27.668Z,17.00
2022-10-01T22:06:19.068Z,17.57
2022-10-01T22:09:27.110Z,19.67
2022-10-01T22:12:00.453Z,17.17
2022-10-01T22:14:33.783Z,13.87
2022-10-01T22:17:24.422Z,15.00
2022-10-01T22:20:18.115Z,15.67
2022-10-01T22:22:47.512Z,12.27
2022-10-01T22:25:15.097Z,11.03
2022-10-01T22:28:01.547Z,11.67
2022-10-01T22:30:35.448Z,9.70
2022-10-01T22:33:40.078Z,9.97
2022-10-01T22:36:41.431Z,6.63
2022-10-01T22:39:38.972Z,7.37
2022-10-01T22:42:31.788Z,3.00
2022-10-01T22:45:13.888Z,4.10
2022-10-01T22:48:02.691Z,4.60
2022-10-01T22:50:49.189Z,4.50
2022-10-01T22:53:46.792Z,4.37
2022-10-01T22:56:23.592Z,4.93
2022-10-01T22:59:00.169Z,4.53
2022-10-01T23:01:58.997Z,4.27
2022-10-01T23:05:20.574Z,3.17
2022-10-01T23:08:13.587Z,2.83
2022-10-01T23:11:12.208Z,2.30
2022-10-01T23:14:06.319Z,2.73
2022-10-01T23:17:22.292Z,2.43
2022-10-01T23:20:18.823Z,2.20
2022-10-01T23:23:42.322Z,4.63
2022-10-01T23:26:38.857Z,2.83
2022-10-01T23:29:44.549Z,2.20
2022-10-01T23:32:50.493Z,2.13
2022-10-01T23:35:56.572Z,2.37
2022-10-01T23:39:07.702Z,2.00
2022-10-01T23:42:09.802Z,2.73
2022-10-01T23:44:54.423Z,3.43
2022-10-01T23:47:41.113Z,2.17
2022-10-01T23:50:19.290Z,2.30
2022-10-01T23:53:05.594Z,4.17
2022-10-01T23:56:16.635Z,2.13
2022-10-01T23:59:20.307Z,2.03
